Time;durP1;ratioP1;P1;durP2;ratioP2;P2;SDS_P1;SDS_P2;PMS_P1;PMS_P2;Temp;Humidity;BMP_temperature;BMP_pressure;BME280_temperature;BME280_humidity;BME280_pressure;Samples;Min_cycle;Max_cycle;Signal;HPM_P1;HPM_P2
2023/03/14 00:01:31;;;;;;;;;;;;;;;1.26;62.56;99915.13;5072880;28;20333;-77
2023/03/14 00:03:57;;;;;;;;;;;;;;;1.30;63.43;99921.81;5072994;28;19912;-77
2023/03/14 00:06:22;;;;;;;;;;;;;;;1.67;62.22;99915.47;5074240;28;19908;-76
2023/03/14 00:08:48;;;;;;;;;;;;;;;1.40;62.03;99910.88;5073743;28;19981;-76
2023/03/14 00:11:15;;;;;;;;;;;;;;;1.09;63.12;99910.59;5094318;28;19922;-76
2023/03/14 00:13:40;;;;;;;;;;;;;;;1.42;62.80;99904.25;5081344;28;19908;-76
2023/03/14 00:16:07;;;;;;;;;;;;;;;1.85;62.20;99899.59;5072732;28;19942;-76
2023/03/14 00:18:32;;;;;;;;;;;;;;;2.22;61.09;99897.88;5073926;28;19998;-76
2023/03/14 00:20:59;;;;;;;;;;;;;;;2.28;60.52;99890.44;5073931;28;19974;-76
2023/03/14 00:23:24;;;;;;;;;;;;;;;2.21;60.02;99885.16;5070358;28;19973;-76
2023/03/14 00:25:49;;;;;;;;;;;;;;;2.26;60.41;99885.19;5072588;28;20007;-76
2023/03/14 00:28:15;;;;;;;;;;;;;;;2.32;61.06;99880.50;5073800;28;19908;-76
2023/03/14 00:30:40;;;;;;;;;;;;;;;2.51;60.64;99872.56;5073669;28;19913;-76
2023/03/14 00:33:05;;;;;;;;;;;;;;;2.73;59.69;99866.00;5072365;28;19931;-76
2023/03/14 00:35:30;;;;;;;;;;;;;;;2.91;59.06;99861.91;5073647;28;19959;-76
2023/03/14 00:37:56;;;;;;;;;;;;;;;3.01;58.63;99855.53;5071034;28;19915;-76
2023/03/14 00:40:21;;;;;;;;;;;;;;;2.93;59.01;99851.38;5073250;28;19920;-76
2023/03/14 00:42:46;;;;;;;;;;;;;;;2.47;60.27;99843.84;5072313;28;19951;-76
2023/03/14 00:45:11;;;;;;;;;;;;;;;2.65;59.97;99840.59;5073362;28;19909;-76
2023/03/14 00:47:37;;;;;;;;;;;;;;;2.88;60.33;99832.88;5073356;28;19962;-76
2023/03/14 00:50:02;;;;;;;;;;;;;;;2.58;60.56;99825.34;5071951;28;20405;-76
2023/03/14 00:52:28;;;;;;;;;;;;;;;2.43;60.80;99826.19;5070423;28;19932;-76
2023/03/14 00:54:53;;;;;;;;;;;;;;;2.37;60.71;99817.03;5071018;28;19912;-76
2023/03/14 00:57:18;;;;;;;;;;;;;;;2.35;60.98;99824.75;5073356;28;19908;-76
2023/03/14 00:59:44;;;;;;;;;;;;;;;2.37;60.74;99823.38;5073099;28;20402;-76
2023/03/14 01:02:09;;;;;;;;;;;;;;;2.15;60.96;99823.59;5073196;28;20045;-76
2023/03/14 01:04:34;;;;;;;;;;;;;;;2.36;60.11;99818.16;5071708;28;19974;-76
2023/03/14 01:06:59;;;;;;;;;;;;;;;2.34;60.53;99818.41;5073047;28;19908;-76
2023/03/14 01:09:25;;;;;;;;;;;;;;;2.38;60.35;99808.47;5071597;28;19913;-76
2023/03/14 01:11:50;;;;;;;;;;;;;;;2.47;59.92;99806.00;5072879;28;19912;-76
2023/03/14 01:14:16;;;;;;;;;;;;;;;2.55;59.64;99812.94;5071588;28;19988;-76
2023/03/14 01:16:41;;;;;;;;;;;;;;;2.61;59.62;99816.56;5072783;28;19938;-76
2023/03/14 01:19:06;;;;;;;;;;;;;;;2.63;59.42;99812.38;5072671;28;20038;-76
2023/03/14 01:21:33;;;;;;;;;;;;;;;2.32;60.11;99812.34;5072825;28;19992;-76
2023/03/14 01:24:00;;;;;;;;;;;;;;;2.49;59.60;99808.50;5070128;28;19912;-76
2023/03/14 01:26:26;;;;;;;;;;;;;;;2.41;59.48;99809.88;5071653;28;19916;-76
2023/03/14 01:28:53;;;;;;;;;;;;;;;2.59;59.52;99803.00;5072555;28;19908;-76
2023/03/14 01:31:18;;;;;;;;;;;;;;;2.61;58.54;99802.75;5072478;28;19912;-76
2023/03/14 01:33:43;;;;;;;;;;;;;;;2.63;59.16;99803.28;5071693;28;19919;-76
2023/03/14 01:36:09;;;;;;;;;;;;;;;2.60;59.09;99814.91;5072366;28;19923;-76
2023/03/14 01:38:35;;;;;;;;;;;;;;;2.63;58.88;99804.09;5072311;28;19958;-76
2023/03/14 01:41:01;;;;;;;;;;;;;;;2.61;58.94;99794.44;5072220;28;20386;-76
2023/03/14 01:43:27;;;;;;;;;;;;;;;2.58;57.91;99801.34;5069121;28;19923;-74
2023/03/14 01:46:04;;;;;;;;;;;;;;;2.63;58.38;99795.81;5070543;28;20393;-76
2023/03/14 01:48:38;;;;;;;;;;;;;;;2.59;58.62;99808.53;5072305;28;19948;-76
2023/03/14 01:51:06;;;;;;;;;;;;;;;2.53;59.04;99806.84;5071401;28;20238;-76
2023/03/14 01:53:31;;;;;;;;;;;;;;;2.43;59.45;99802.13;5072276;28;19943;-76
2023/03/14 01:55:57;;;;;;;;;;;;;;;2.31;60.30;99794.13;5071916;28;19982;-76
2023/03/14 01:58:25;;;;;;;;;;;;;;;2.22;60.47;99796.56;5069899;28;19961;-76
2023/03/14 02:00:50;;;;;;;;;;;;;;;2.21;61.25;99794.09;5070746;28;19991;-76
2023/03/14 02:03:16;;;;;;;;;;;;;;;2.50;60.52;99788.91;5072778;28;19908;-76
2023/03/14 02:05:43;;;;;;;;;;;;;;;2.45;60.90;99790.84;5072800;28;20287;-76
2023/03/14 02:08:13;;;;;;;;;;;;;;;2.52;60.25;99789.47;5071207;28;19908;-76
2023/03/14 02:10:41;;;;;;;;;;;;;;;2.73;59.93;99788.66;5071166;28;19916;-77
2023/03/14 02:13:07;;;;;;;;;;;;;;;2.72;59.91;99781.47;5072179;28;19909;-77
2023/03/14 02:15:32;;;;;;;;;;;;;;;2.30;60.30;99778.66;5069546;28;19916;-77
2023/03/14 02:17:58;;;;;;;;;;;;;;;2.26;60.89;99782.22;5071875;28;20357;-77
2023/03/14 02:20:36;;;;;;;;;;;;;;;1.90;61.87;99777.41;5069576;28;19912;-77
2023/03/14 02:23:04;;;;;;;;;;;;;;;2.07;62.15;99782.72;5071936;28;20322;-77
2023/03/14 02:25:48;;;;;;;;;;;;;;;2.28;61.39;99769.78;5070412;28;19991;-77
2023/03/14 02:28:14;;;;;;;;;;;;;;;1.91;61.29;99774.38;5070539;28;19909;-77
2023/03/14 02:30:39;;;;;;;;;;;;;;;1.18;63.69;99775.91;5069127;28;19916;-77
2023/03/14 02:33:15;;;;;;;;;;;;;;;1.03;64.87;99767.53;5071723;28;20307;-78
2023/03/14 02:35:50;;;;;;;;;;;;;;;0.87;65.81;99764.66;5070383;28;19908;-78
2023/03/14 02:38:29;;;;;;;;;;;;;;;0.60;66.36;99772.97;5071623;28;20057;-78
2023/03/14 02:40:54;;;;;;;;;;;;;;;0.36;67.37;99782.38;5070298;28;19916;-78
2023/03/14 02:43:19;;;;;;;;;;;;;;;0.76;66.34;99782.19;5070283;28;20460;-78
2023/03/14 02:45:48;;;;;;;;;;;;;;;1.08;65.60;99787.69;5066344;28;19913;-78
2023/03/14 02:48:28;;;;;;;;;;;;;;;1.35;64.64;99794.22;5051593;28;20357;-77
2023/03/14 02:50:58;;;;;;;;;;;;;;;1.46;63.68;99795.09;5064787;28;20386;-77
2023/03/14 02:53:27;;;;;;;;;;;;;;;0.98;63.84;99784.84;5071617;28;19908;-78
2023/03/14 02:55:53;;;;;;;;;;;;;;;0.82;65.12;99789.41;5071354;28;19927;-78
2023/03/14 02:58:18;;;;;;;;;;;;;;;0.91;64.07;99804.34;5071438;28;19912;-77
2023/03/14 03:00:44;;;;;;;;;;;;;;;0.66;64.32;99789.28;5069965;28;20348;-78
2023/03/14 03:03:09;;;;;;;;;;;;;;;0.78;65.02;99793.78;5074154;28;19912;-78
2023/03/14 03:05:34;;;;;;;;;;;;;;;1.02;64.49;99791.50;5075319;28;20386;-78
2023/03/14 03:08:00;;;;;;;;;;;;;;;1.21;64.08;99797.44;5075240;28;19909;-78
2023/03/14 03:10:26;;;;;;;;;;;;;;;1.33;63.69;99800.00;5073867;28;20291;-78
2023/03/14 03:12:51;;;;;;;;;;;;;;;1.44;63.48;99795.38;5086150;28;19919;-77
2023/03/14 03:15:17;;;;;;;;;;;;;;;1.46;63.13;99790.44;5095351;28;19908;-77
2023/03/14 03:17:42;;;;;;;;;;;;;;;1.58;63.23;99786.66;5093985;28;20503;-78
2023/03/14 03:20:09;;;;;;;;;;;;;;;1.72;62.86;99790.56;5072940;28;19912;-77
2023/03/14 03:22:35;;;;;;;;;;;;;;;1.74;62.18;99782.84;5073579;28;19931;-77
2023/03/14 03:25:00;;;;;;;;;;;;;;;1.76;62.22;99777.09;5074916;28;19915;-78
2023/03/14 03:27:25;;;;;;;;;;;;;;;1.62;61.84;99779.47;5073357;28;19908;-77
2023/03/14 03:29:50;;;;;;;;;;;;;;;1.45;63.10;99793.44;5068712;28;19983;-77
2023/03/14 03:32:16;;;;;;;;;;;;;;;1.66;62.46;99780.59;5053286;28;20011;-77
2023/03/14 03:34:41;;;;;;;;;;;;;;;1.32;62.40;99775.44;5059545;28;19916;-78
2023/03/14 03:37:06;;;;;;;;;;;;;;;0.94;63.28;99781.78;5074549;28;19962;-78
2023/03/14 03:39:32;;;;;;;;;;;;;;;0.68;64.53;99781.56;5073375;28;19920;-78
2023/03/14 03:41:57;;;;;;;;;;;;;;;0.53;65.89;99781.44;5074571;28;19919;-77
2023/03/14 03:44:22;;;;;;;;;;;;;;;0.70;65.10;99773.88;5073250;28;19970;-78
2023/03/14 03:46:48;;;;;;;;;;;;;;;0.76;65.14;99771.19;5074379;28;20444;-78
2023/03/14 03:49:13;;;;;;;;;;;;;;;0.67;65.46;99768.91;5073316;28;19916;-78
2023/03/14 03:51:39;;;;;;;;;;;;;;;0.34;66.97;99770.78;5071794;28;19913;-78
2023/03/14 03:54:04;;;;;;;;;;;;;;;0.39;66.97;99776.34;5074488;28;19973;-78
2023/03/14 03:56:31;;;;;;;;;;;;;;;0.23;67.40;99760.75;5072959;28;20014;-79
2023/03/14 03:58:56;;;;;;;;;;;;;;;0.44;66.99;99766.47;5073085;28;20393;-78
2023/03/14 04:01:21;;;;;;;;;;;;;;;0.60;65.93;99760.00;5073077;28;20002;-78
2023/03/14 04:03:47;;;;;;;;;;;;;;;0.79;66.09;99759.63;5072442;28;19998;-78
2023/03/14 04:06:13;;;;;;;;;;;;;;;1.08;65.76;99762.91;5067096;28;19908;-78
2023/03/14 04:08:40;;;;;;;;;;;;;;;1.18;65.38;99759.38;5065983;28;19918;-78
2023/03/14 04:11:05;;;;;;;;;;;;;;;1.21;65.30;99758.00;5072596;28;20361;-78
2023/03/14 04:13:31;;;;;;;;;;;;;;;1.06;65.98;99750.47;5068072;28;19916;-77
2023/03/14 04:15:56;;;;;;;;;;;;;;;0.94;65.76;99748.72;5066240;28;19916;-78
2023/03/14 04:18:22;;;;;;;;;;;;;;;1.09;65.23;99744.44;5069720;28;19912;-77
2023/03/14 04:20:52;;;;;;;;;;;;;;;1.22;64.65;99745.91;5060681;28;20341;-77
2023/03/14 04:23:17;;;;;;;;;;;;;;;1.24;64.40;99740.94;5058362;28;20302;-78
2023/03/14 04:25:42;;;;;;;;;;;;;;;1.31;64.02;99740.72;5053505;28;19908;-78
2023/03/14 04:28:07;;;;;;;;;;;;;;;1.47;63.51;99742.47;5052273;28;19992;-78
2023/03/14 04:30:33;;;;;;;;;;;;;;;1.49;63.56;99750.44;5062131;28;19916;-78
2023/03/14 04:32:58;;;;;;;;;;;;;;;1.50;63.71;99747.44;5073439;28;20007;-78
2023/03/14 04:35:23;;;;;;;;;;;;;;;1.23;64.48;99740.13;5073618;28;20183;-78
2023/03/14 04:37:49;;;;;;;;;;;;;;;1.28;64.69;99744.00;5071960;28;20315;-78
2023/03/14 04:40:15;;;;;;;;;;;;;;;1.37;64.26;99747.91;5071240;28;19920;-77
2023/03/14 04:42:40;;;;;;;;;;;;;;;1.40;64.06;99753.75;5073343;28;20021;-78
2023/03/14 04:45:06;;;;;;;;;;;;;;;1.32;64.09;99762.50;5073365;28;19943;-78
2023/03/14 04:47:31;;;;;;;;;;;;;;;1.29;64.36;99756.69;5073281;28;19916;-78
2023/03/14 04:49:56;;;;;;;;;;;;;;;1.34;64.46;99762.25;5071865;28;19916;-78
2023/03/14 04:52:22;;;;;;;;;;;;;;;1.33;64.67;99760.59;5069206;28;19924;-78
2023/03/14 04:54:47;;;;;;;;;;;;;;;1.12;64.63;99771.47;5070898;28;20370;-77
2023/03/14 04:57:12;;;;;;;;;;;;;;;0.94;65.04;99778.22;5058969;28;19918;-77
2023/03/14 04:59:37;;;;;;;;;;;;;;;1.06;65.18;99775.25;5070760;28;19916;-77
2023/03/14 05:02:03;;;;;;;;;;;;;;;0.97;64.99;99772.19;5071703;28;19919;-78
2023/03/14 05:04:29;;;;;;;;;;;;;;;1.02;64.67;99772.19;5071843;28;20012;-76
2023/03/14 05:06:54;;;;;;;;;;;;;;;1.06;64.11;99778.03;5061090;28;19942;-78
2023/03/14 05:09:19;;;;;;;;;;;;;;;0.68;65.16;99772.50;5057565;28;19913;-84
2023/03/14 05:11:45;;;;;;;;;;;;;;;0.44;65.90;99778.34;5061690;28;19916;-81
2023/03/14 05:14:10;;;;;;;;;;;;;;;0.01;67.18;99780.06;5057152;28;19912;-79
2023/03/14 05:16:35;;;;;;;;;;;;;;;-0.51;68.63;99784.91;5068306;28;20367;-85
2023/03/14 05:19:01;;;;;;;;;;;;;;;-0.81;69.98;99781.47;5051964;28;19916;-79
2023/03/14 05:21:26;;;;;;;;;;;;;;;-0.77;70.85;99790.03;5068805;28;19935;-84
2023/03/14 05:23:52;;;;;;;;;;;;;;;-0.74;70.91;99786.78;5064552;28;19912;-85
2023/03/14 05:26:17;;;;;;;;;;;;;;;-0.37;70.50;99790.84;5056214;28;19932;-79
2023/03/14 05:28:42;;;;;;;;;;;;;;;0.18;69.96;99790.97;5063071;28;19908;-82
2023/03/14 05:31:08;;;;;;;;;;;;;;;0.52;67.38;99786.09;5051849;28;19916;-83
2023/03/14 05:33:34;;;;;;;;;;;;;;;0.90;66.02;99791.69;5047153;28;20400;-79
2023/03/14 05:35:59;;;;;;;;;;;;;;;1.10;64.57;99788.25;5066029;28;20303;-73
2023/03/14 05:38:24;;;;;;;;;;;;;;;1.03;64.88;99792.31;5066256;28;20011;-81
2023/03/14 05:40:49;;;;;;;;;;;;;;;1.04;65.15;99788.47;5064212;28;20013;-77
2023/03/14 05:43:15;;;;;;;;;;;;;;;0.53;66.89;99786.94;5053335;28;20038;-75
2023/03/14 05:45:41;;;;;;;;;;;;;;;0.64;67.28;99787.84;5065311;28;19912;-74
2023/03/14 05:48:07;;;;;;;;;;;;;;;0.93;65.55;99784.81;5062604;28;19916;-76
2023/03/14 05:50:32;;;;;;;;;;;;;;;0.97;64.45;99781.28;5052212;28;19920;-77
2023/03/14 05:52:57;;;;;;;;;;;;;;;0.61;65.11;99780.13;5065840;28;19955;-77
2023/03/14 05:55:22;;;;;;;;;;;;;;;0.82;64.81;99770.97;5050585;28;19913;-78
2023/03/14 05:57:48;;;;;;;;;;;;;;;0.38;65.62;99771.09;5060494;28;19923;-85
2023/03/14 06:00:13;;;;;;;;;;;;;;;0.48;66.04;99776.72;5063646;28;19908;-80
2023/03/14 06:02:38;;;;;;;;;;;;;;;0.15;66.67;99769.50;5063469;28;19916;-78
2023/03/14 06:05:04;;;;;;;;;;;;;;;0.24;66.42;99770.66;5065135;28;19912;-74
2023/03/14 06:07:29;;;;;;;;;;;;;;;0.27;66.32;99768.25;5061723;28;19920;-80
2023/03/14 06:09:55;;;;;;;;;;;;;;;0.74;65.40;99771.44;5071144;28;20002;-80
2023/03/14 06:12:20;;;;;;;;;;;;;;;0.54;64.98;99766.59;5070200;28;19982;-80
2023/03/14 06:14:45;;;;;;;;;;;;;;;1.25;64.64;99773.75;5070518;28;19970;-80
2023/03/14 06:17:10;;;;;;;;;;;;;;;1.79;63.12;99769.06;5069955;28;19966;-78
2023/03/14 06:19:36;;;;;;;;;;;;;;;1.68;61.77;99768.22;5059726;28;20408;-78
2023/03/14 06:22:01;;;;;;;;;;;;;;;1.78;62.20;99761.91;5055622;28;19920;-79
2023/03/14 06:24:27;;;;;;;;;;;;;;;1.75;62.01;99761.59;5063080;28;19916;-78
2023/03/14 06:26:52;;;;;;;;;;;;;;;1.32;61.82;99756.16;5061751;28;20003;-77
2023/03/14 06:29:17;;;;;;;;;;;;;;;1.34;61.51;99762.25;5065513;28;19913;-76
2023/03/14 06:31:43;;;;;;;;;;;;;;;1.35;61.89;99756.44;5061043;28;19923;-80
2023/03/14 06:34:08;;;;;;;;;;;;;;;1.56;62.57;99766.75;5064223;28;19970;-79
2023/03/14 06:36:33;;;;;;;;;;;;;;;2.34;62.14;99762.34;5065329;28;20520;-81
2023/03/14 06:38:58;;;;;;;;;;;;;;;2.64;60.78;99758.81;5059277;28;19920;-75
2023/03/14 06:41:25;;;;;;;;;;;;;;;2.91;60.12;99757.72;5056863;28;19921;-81
2023/03/14 06:43:51;;;;;;;;;;;;;;;3.23;60.59;99761.28;5066928;28;19916;-81
2023/03/14 06:46:16;;;;;;;;;;;;;;;3.49;59.31;99759.28;5067083;28;21040;-80
2023/03/14 06:48:42;;;;;;;;;;;;;;;3.67;59.50;99753.44;5066437;28;20402;-77
2023/03/14 06:51:07;;;;;;;;;;;;;;;3.64;58.95;99752.06;5061471;28;20418;-72
2023/03/14 06:53:33;;;;;;;;;;;;;;;3.70;58.07;99750.94;5060828;28;19920;-75
2023/03/14 06:55:58;;;;;;;;;;;;;;;3.92;57.43;99753.34;5059176;28;19987;-78
2023/03/14 06:58:23;;;;;;;;;;;;;;;4.32;57.42;99747.84;5063768;28;19919;-74
2023/03/14 07:00:49;;;;;;;;;;;;;;;4.55;56.70;99744.69;5056140;28;19917;-74
2023/03/14 07:03:14;;;;;;;;;;;;;;;4.74;56.19;99750.38;5053725;28;19916;-78
2023/03/14 07:05:40;;;;;;;;;;;;;;;5.02;56.12;99734.03;5062813;28;20038;-78
2023/03/14 07:08:06;;;;;;;;;;;;;;;4.64;55.11;99731.84;5053443;28;20352;-76
2023/03/14 07:10:31;;;;;;;;;;;;;;;4.81;55.40;99733.41;5078538;28;20452;-77
2023/03/14 07:12:56;;;;;;;;;;;;;;;5.24;55.14;99732.72;5066793;28;20010;-72
2023/03/14 07:15:22;;;;;;;;;;;;;;;5.65;53.24;99729.50;5061505;28;19916;-73
2023/03/14 07:17:48;;;;;;;;;;;;;;;5.73;53.08;99725.25;5078425;28;19912;-76
2023/03/14 07:20:13;;;;;;;;;;;;;;;5.76;50.59;99728.25;5061738;28;19912;-77
2023/03/14 07:22:38;;;;;;;;;;;;;;;5.96;51.56;99726.34;5062366;28;19912;-77
2023/03/14 07:25:04;;;;;;;;;;;;;;;5.69;51.66;99713.94;5065630;28;20438;-82
2023/03/14 07:27:29;;;;;;;;;;;;;;;5.50;52.47;99713.03;5067890;28;19913;-77
2023/03/14 07:29:54;;;;;;;;;;;;;;;5.75;52.78;99709.13;5063996;28;19924;-79
2023/03/14 07:32:20;;;;;;;;;;;;;;;5.78;52.19;99713.25;5072448;28;19967;-77
2023/03/14 07:34:45;;;;;;;;;;;;;;;5.59;51.49;99716.81;5059108;28;19935;-73
2023/03/14 07:37:10;;;;;;;;;;;;;;;6.03;50.14;99715.75;5059233;28;20056;-70
2023/03/14 07:39:35;;;;;;;;;;;;;;;6.25;50.09;99711.53;5065821;28;20012;-72
2023/03/14 07:42:01;;;;;;;;;;;;;;;6.43;48.98;99711.84;5064438;28;20014;-78
2023/03/14 07:44:26;;;;;;;;;;;;;;;6.62;48.98;99706.25;5061815;28;19977;-76
2023/03/14 07:46:52;;;;;;;;;;;;;;;7.08;49.30;99706.63;5062022;28;19916;-80
2023/03/14 07:49:17;;;;;;;;;;;;;;;7.12;47.42;99708.47;5064120;28;19912;-75
2023/03/14 07:51:43;;;;;;;;;;;;;;;7.06;49.09;99704.13;5070047;28;19966;-77
2023/03/14 07:54:09;;;;;;;;;;;;;;;7.23;48.43;99702.69;5067093;28;19924;-76
2023/03/14 07:56:34;;;;;;;;;;;;;;;6.94;48.00;99695.44;5065809;28;19915;-77
2023/03/14 07:59:00;;;;;;;;;;;;;;;7.10;47.41;99694.03;5060632;28;19920;-76
2023/03/14 08:01:25;;;;;;;;;;;;;;;7.50;47.78;99687.19;5064610;28;19920;-77
2023/03/14 08:03:50;;;;;;;;;;;;;;;6.62;47.50;99686.81;5072210;28;19936;-76
2023/03/14 08:06:15;;;;;;;;;;;;;;;7.02;47.19;99690.00;5069144;28;19912;-75
2023/03/14 08:08:41;;;;;;;;;;;;;;;7.07;47.45;99689.09;5074474;28;19916;-78
2023/03/14 08:11:08;;;;;;;;;;;;;;;6.85;48.14;99689.75;5071331;28;19923;-76
2023/03/14 08:13:34;;;;;;;;;;;;;;;7.47;47.70;99685.00;5066822;28;20284;-75
2023/03/14 08:15:59;;;;;;;;;;;;;;;7.84;45.79;99683.97;5070165;28;19934;-76
2023/03/14 08:18:24;;;;;;;;;;;;;;;7.86;46.24;99678.09;5074387;28;19950;-75
2023/03/14 08:20:49;;;;;;;;;;;;;;;7.22;45.58;99673.25;5073742;28;19918;-76
2023/03/14 08:23:15;;;;;;;;;;;;;;;7.53;46.59;99673.44;5068560;28;20406;-75
2023/03/14 08:25:40;;;;;;;;;;;;;;;7.92;45.60;99671.25;5066274;28;19912;-76
2023/03/14 08:28:05;;;;;;;;;;;;;;;7.22;45.43;99673.25;5070456;28;19979;-75
2023/03/14 08:30:31;;;;;;;;;;;;;;;6.66;45.93;99664.78;5052180;28;20318;-75
2023/03/14 08:32:57;;;;;;;;;;;;;;;7.28;45.33;99669.25;5053617;28;19909;-76
2023/03/14 08:35:23;;;;;;;;;;;;;;;7.30;45.32;99665.03;5061282;28;20521;-75
2023/03/14 08:37:49;;;;;;;;;;;;;;;7.89;45.85;99668.25;5073429;28;19943;-76
2023/03/14 08:40:15;;;;;;;;;;;;;;;7.63;44.46;99652.94;5070826;28;20406;-75
2023/03/14 08:42:40;;;;;;;;;;;;;;;7.48;46.14;99650.47;5067186;28;19969;-75
2023/03/14 08:45:07;;;;;;;;;;;;;;;7.47;45.98;99637.69;5069603;28;20370;-78
2023/03/14 08:47:32;;;;;;;;;;;;;;;7.63;44.06;99635.41;5070732;28;19909;-76
2023/03/14 08:49:58;;;;;;;;;;;;;;;7.09;44.28;99639.53;5071804;28;20305;-76
2023/03/14 08:52:23;;;;;;;;;;;;;;;7.98;44.26;99628.25;5071760;28;19923;-76
2023/03/14 08:54:48;;;;;;;;;;;;;;;7.47;44.38;99626.56;5073169;28;20380;-76
2023/03/14 08:57:14;;;;;;;;;;;;;;;7.86;43.40;99614.03;5073182;28;19908;-76
2023/03/14 08:59:39;;;;;;;;;;;;;;;8.36;44.96;99606.75;5067828;28;19915;-76
2023/03/14 09:02:05;;;;;;;;;;;;;;;8.75;44.83;99599.63;5062790;28;19932;-76
2023/03/14 09:04:31;;;;;;;;;;;;;;;9.10;42.42;99594.22;5052574;28;19909;-76
2023/03/14 09:06:57;;;;;;;;;;;;;;;9.34;43.90;99590.19;5066300;28;20276;-75
2023/03/14 09:09:23;;;;;;;;;;;;;;;9.55;43.20;99590.41;5069843;28;20287;-76
2023/03/14 09:11:48;;;;;;;;;;;;;;;9.72;40.91;99588.81;5059720;28;19919;-75
2023/03/14 09:14:14;;;;;;;;;;;;;;;9.86;41.04;99587.84;5060553;28;20403;-74
2023/03/14 09:16:39;;;;;;;;;;;;;;;9.84;41.83;99585.38;5062793;28;19919;-72
2023/03/14 09:19:05;;;;;;;;;;;;;;;10.17;42.15;99575.66;5065710;28;19958;-73
2023/03/14 09:21:30;;;;;;;;;;;;;;;10.40;40.28;99576.31;5067511;28;20082;-77
2023/03/14 09:23:56;;;;;;;;;;;;;;;10.34;40.62;99572.88;5061749;28;20478;-76
2023/03/14 09:26:22;;;;;;;;;;;;;;;10.55;39.44;99572.19;5060634;28;19920;-76
2023/03/14 09:28:48;;;;;;;;;;;;;;;10.64;39.20;99561.00;5063323;28;20291;-76
2023/03/14 09:31:14;;;;;;;;;;;;;;;10.92;38.32;99566.16;5067415;28;20314;-76
2023/03/14 09:33:40;;;;;;;;;;;;;;;10.79;37.57;99565.19;5070417;28;19912;-76
2023/03/14 09:36:05;;;;;;;;;;;;;;;10.34;37.40;99564.47;5066527;28;19920;-76
2023/03/14 09:38:32;;;;;;;;;;;;;;;10.09;39.00;99557.75;5063568;28;19912;-76
2023/03/14 09:40:58;;;;;;;;;;;;;;;10.84;39.68;99555.81;5063097;28;19923;-76
2023/03/14 09:43:24;;;;;;;;;;;;;;;10.79;37.23;99554.00;5059626;28;20378;-74
2023/03/14 09:45:50;;;;;;;;;;;;;;;9.76;36.98;99549.84;5069167;28;20435;-75
2023/03/14 09:48:20;;;;;;;;;;;;;;;10.16;37.65;99546.91;5070570;28;19912;-75
2023/03/14 09:50:53;;;;;;;;;;;;;;;10.60;38.22;99548.81;5072349;28;19916;-78
2023/03/14 09:53:20;;;;;;;;;;;;;;;11.08;36.94;99552.44;5068560;28;19938;-81
2023/03/14 09:55:48;;;;;;;;;;;;;;;11.39;35.89;99551.25;5062464;28;19920;-81
2023/03/14 09:58:15;;;;;;;;;;;;;;;11.28;38.53;99539.66;5063046;28;19959;-78
2023/03/14 10:00:41;;;;;;;;;;;;;;;11.09;37.18;99529.69;5060571;28;19912;-76
2023/03/14 10:03:12;;;;;;;;;;;;;;;11.00;36.63;99517.72;5051683;28;20003;-82
2023/03/14 10:05:38;;;;;;;;;;;;;;;11.51;37.45;99520.53;5069511;28;19944;-77
2023/03/14 10:08:04;;;;;;;;;;;;;;;11.36;37.53;99509.94;5070911;28;19912;-78
2023/03/14 10:10:30;;;;;;;;;;;;;;;11.49;35.88;99505.25;5069375;28;20002;-77
2023/03/14 10:13:16;;;;;;;;;;;;;;;11.57;34.81;99495.94;5057312;28;19916;-80
2023/03/14 10:15:41;;;;;;;;;;;;;;;12.12;36.89;99493.22;5061258;28;20057;-78
2023/03/14 10:18:12;;;;;;;;;;;;;;;11.77;36.39;99499.09;5059337;28;19958;-83
2023/03/14 10:20:44;;;;;;;;;;;;;;;11.59;36.74;99488.06;5067747;28;20468;-79
2023/03/14 10:23:12;;;;;;;;;;;;;;;11.69;35.45;99483.16;5065345;28;19912;-75
2023/03/14 10:25:57;;;;;;;;;;;;;;;11.62;36.66;99481.75;5054666;28;20387;-76
2023/03/14 10:28:50;;;;;;;;;;;;;;;12.02;36.29;99472.03;5058225;28;19913;-75
2023/03/14 10:31:16;;;;;;;;;;;;;;;12.40;34.80;99469.34;5027406;28;19921;-80
2023/03/14 10:33:41;;;;;;;;;;;;;;;12.18;34.32;99462.97;5055122;28;19927;-77
2023/03/14 10:36:25;;;;;;;;;;;;;;;11.51;35.79;99458.13;5054881;28;19923;-76
2023/03/14 10:38:57;;;;;;;;;;;;;;;12.45;34.41;99455.09;5049451;28;19908;-76
2023/03/14 10:41:26;;;;;;;;;;;;;;;12.56;35.45;99433.81;5065062;28;20375;-76
2023/03/14 10:43:53;;;;;;;;;;;;;;;12.33;36.71;99430.66;5052208;28;20275;-76
2023/03/14 10:46:19;;;;;;;;;;;;;;;12.61;35.59;99427.16;5065041;28;19920;-77
2023/03/14 10:48:46;;;;;;;;;;;;;;;12.88;33.80;99424.81;5065455;28;19957;-76
2023/03/14 10:51:17;;;;;;;;;;;;;;;11.37;35.26;99411.59;5066091;28;19917;-78
2023/03/14 10:53:47;;;;;;;;;;;;;;;10.71;36.78;99413.03;5060612;28;20399;-74
2023/03/14 10:56:22;;;;;;;;;;;;;;;11.78;35.47;99397.91;5061772;28;19916;-74
2023/03/14 10:58:49;;;;;;;;;;;;;;;11.64;36.01;99388.94;5060235;28;19928;-75
2023/03/14 11:01:25;;;;;;;;;;;;;;;12.09;35.23;99381.78;5058068;28;20022;-76
2023/03/14 11:04:14;;;;;;;;;;;;;;;12.53;34.31;99377.59;5054824;28;19916;-76
2023/03/14 11:06:44;;;;;;;;;;;;;;;12.73;35.95;99364.59;5047088;28;20423;-75
2023/03/14 11:09:22;;;;;;;;;;;;;;;13.05;34.90;99356.38;5057150;28;19916;-75
2023/03/14 11:11:48;;;;;;;;;;;;;;;12.60;33.86;99352.59;5067319;28;19965;-75
2023/03/14 11:14:18;;;;;;;;;;;;;;;13.02;35.14;99338.22;5061657;28;19917;-75
2023/03/14 11:16:53;;;;;;;;;;;;;;;13.22;34.19;99334.81;5051646;28;19987;-75
2023/03/14 11:19:54;;;;;;;;;;;;;;;13.33;33.50;99325.50;5057939;28;19948;-74
2023/03/14 11:22:22;;;;;;;;;;;;;;;13.25;33.99;99320.84;4979449;28;20036;-75
2023/03/14 11:25:08;;;;;;;;;;;;;;;13.11;34.37;99296.00;5049637;28;19912;-74
2023/03/14 11:27:42;;;;;;;;;;;;;;;13.39;33.79;99294.34;5016732;28;19928;-75
2023/03/14 11:30:21;;;;;;;;;;;;;;;13.19;34.85;99288.59;5068434;28;19924;-75
2023/03/14 11:32:57;;;;;;;;;;;;;;;13.48;33.51;99289.41;5061756;28;20003;-76
2023/03/14 11:35:26;;;;;;;;;;;;;;;13.37;32.46;99274.22;5060942;28;19991;-76
2023/03/14 11:37:55;;;;;;;;;;;;;;;13.40;33.44;99267.91;5072508;28;19915;-76
2023/03/14 11:40:22;;;;;;;;;;;;;;;13.41;32.80;99267.53;5061360;28;19917;-77
2023/03/14 11:42:54;;;;;;;;;;;;;;;13.86;33.77;99259.91;5070156;28;19915;-76
2023/03/14 11:45:24;;;;;;;;;;;;;;;13.80;33.86;99249.28;5060504;28;20375;-77
2023/03/14 11:47:53;;;;;;;;;;;;;;;13.65;33.88;99237.69;5063816;28;19921;-76
2023/03/14 11:50:22;;;;;;;;;;;;;;;13.91;34.14;99230.69;5062384;28;19908;-77
2023/03/14 11:52:53;;;;;;;;;;;;;;;13.92;33.33;99220.28;5063759;28;19920;-76
2023/03/14 11:55:22;;;;;;;;;;;;;;;13.75;32.65;99219.44;5069980;28;20057;-76
2023/03/14 11:57:50;;;;;;;;;;;;;;;13.45;32.95;99203.03;5070786;28;19912;-77
2023/03/14 12:00:17;;;;;;;;;;;;;;;13.75;33.97;99195.00;5073232;28;19916;-76
2023/03/14 12:02:56;;;;;;;;;;;;;;;13.75;34.84;99195.00;5067776;28;19962;-76
2023/03/14 12:05:22;;;;;;;;;;;;;;;13.69;32.91;99184.38;5059560;28;19912;-74
2023/03/14 12:08:18;;;;;;;;;;;;;;;13.50;34.48;99179.50;5065149;28;19946;-75
2023/03/14 12:11:09;;;;;;;;;;;;;;;13.74;34.64;99175.66;5079613;28;20010;-76
2023/03/14 12:13:37;;;;;;;;;;;;;;;13.63;34.21;99166.97;5068874;28;19957;-75
2023/03/14 12:16:07;;;;;;;;;;;;;;;13.80;34.31;99162.16;5056700;28;19913;-75
2023/03/14 12:18:39;;;;;;;;;;;;;;;14.20;33.45;99157.44;5061245;28;20049;-76
2023/03/14 12:21:05;;;;;;;;;;;;;;;14.11;33.08;99152.84;5054516;28;20400;-76
2023/03/14 12:23:37;;;;;;;;;;;;;;;14.43;32.71;99149.94;5061209;28;19994;-76
2023/03/14 12:26:11;;;;;;;;;;;;;;;14.44;32.42;99134.69;5056792;28;19990;-76
2023/03/14 12:28:37;;;;;;;;;;;;;;;14.87;31.92;99134.75;5063202;28;20005;-76
2023/03/14 12:31:22;;;;;;;;;;;;;;;14.82;32.10;99131.44;5068267;28;19985;-75
2023/03/14 12:33:47;;;;;;;;;;;;;;;14.63;32.59;99129.41;5065681;28;20451;-76
2023/03/14 12:36:29;;;;;;;;;;;;;;;14.62;32.54;99134.25;5071442;28;20419;-76
2023/03/14 12:39:10;;;;;;;;;;;;;;;14.36;32.05;99132.09;5054376;28;20301;-77
2023/03/14 12:41:44;;;;;;;;;;;;;;;14.36;31.03;99129.28;5077970;28;19932;-74
2023/03/14 12:44:45;;;;;;;;;;;;;;;14.46;31.35;99123.88;5058288;28;20372;-75
2023/03/14 12:47:19;;;;;;;;;;;;;;;14.24;32.10;99118.97;5004085;28;19921;-75
2023/03/14 12:49:53;;;;;;;;;;;;;;;14.18;32.63;99112.84;5069243;28;19920;-75
2023/03/14 12:52:29;;;;;;;;;;;;;;;14.38;32.35;99110.03;5062590;28;20381;-76
2023/03/14 12:54:57;;;;;;;;;;;;;;;14.13;33.35;99113.09;5058841;28;19922;-76